Canada's Largest FIR

CZEG Edmonton

Screenshot by Cody Newman

  Recent News


  Upcoming Events

Northern Lights Tuesdays  April 23, 2024 23:00z

  Online Controllers

No controllers online.

  View Our Airspace

  Weather

CYYC - Calgary International Airport   VFR
CYYC 200300Z 11007KT 30SM FEW230 01/M12 A3039 RMK CI1 CI TR CONTRAILS SLP347

CYEG - Edmonton International Airport   VFR
CYEG 200300Z 22004KT 20SM SKC 01/M13 A3042 RMK SLP341

CYXY - Whitehorse / Erik Nielsen International Airport   VFR
CYXY 200300Z 20008KT 40SM FEW250 14/M12 A3013 RMK CI1 CI TR SLP233

CYZF - Yellowknife International Airport   VFR
CYZF 200300Z 01007KT 15SM FEW180 FEW240 07/M04 A3023 RMK AC1CI1 SLP253

CYMM - Fort McMurray Airport   VFR
CYMM 200300Z AUTO 21007KT 9SM CLR 06/M15 A3035 RMK SLP301

CYQF - Red Deer Regional Airport   VFR
CYQF 200300Z AUTO 10005KT 9SM CLR 01/M12 A3041 RMK SLP346

CZVL - Edmonton / Villeneuve Airport   VFR
CZVL 200300Z AUTO 19002KT 9SM CLR M02/M14 A3042 RMK SLP339

CYBW - Calgary / Springbank Airport   VFR
CYBW 200300Z AUTO 14005KT 9SM CLR M01/M11 A3038 RMK PCPN 0.5MM PAST HR SLP348

CYOD - CFB Cold Lake   VFR
CYOD 200300Z 18002KT 15SM SKC 04/M16 A3040 RMK DENSITY ALT 225FT SLP324